sensor_id;sensor_type;location;lat;lon;timestamp;P1;durP1;ratioP1;P2;durP2;ratioP2
14584;SDS011;7379;51.506;11.876;2023-01-09T00:00:04;4.67;;;4.20;;
14584;SDS011;7379;51.506;11.876;2023-01-09T00:02:32;4.33;;;3.90;;
14584;SDS011;7379;51.506;11.876;2023-01-09T00:04:59;6.20;;;4.77;;
14584;SDS011;7379;51.506;11.876;2023-01-09T00:07:27;5.10;;;4.23;;
14584;SDS011;7379;51.506;11.876;2023-01-09T00:09:54;5.10;;;4.60;;
14584;SDS011;7379;51.506;11.876;2023-01-09T00:12:20;5.00;;;4.37;;
14584;SDS011;7379;51.506;11.876;2023-01-09T00:14:47;5.53;;;4.70;;
14584;SDS011;7379;51.506;11.876;2023-01-09T00:17:14;5.23;;;4.57;;
14584;SDS011;7379;51.506;11.876;2023-01-09T00:19:41;5.63;;;4.93;;
14584;SDS011;7379;51.506;11.876;2023-01-09T00:22:07;4.93;;;4.47;;
14584;SDS011;7379;51.506;11.876;2023-01-09T00:24:36;5.53;;;4.83;;
14584;SDS011;7379;51.506;11.876;2023-01-09T00:27:03;5.30;;;4.80;;
14584;SDS011;7379;51.506;11.876;2023-01-09T00:29:30;5.37;;;4.87;;
14584;SDS011;7379;51.506;11.876;2023-01-09T00:31:56;5.43;;;4.93;;
14584;SDS011;7379;51.506;11.876;2023-01-09T00:34:23;5.20;;;4.70;;
14584;SDS011;7379;51.506;11.876;2023-01-09T00:36:51;5.73;;;5.13;;
14584;SDS011;7379;51.506;11.876;2023-01-09T00:39:20;6.13;;;5.33;;
14584;SDS011;7379;51.506;11.876;2023-01-09T00:41:49;5.80;;;5.20;;
14584;SDS011;7379;51.506;11.876;2023-01-09T00:44:20;6.13;;;5.40;;
14584;SDS011;7379;51.506;11.876;2023-01-09T00:46:50;6.20;;;5.60;;
14584;SDS011;7379;51.506;11.876;2023-01-09T00:49:20;6.43;;;5.80;;
14584;SDS011;7379;51.506;11.876;2023-01-09T00:51:47;7.43;;;6.63;;
14584;SDS011;7379;51.506;11.876;2023-01-09T00:54:15;6.50;;;5.90;;
14584;SDS011;7379;51.506;11.876;2023-01-09T00:56:44;6.53;;;5.93;;
14584;SDS011;7379;51.506;11.876;2023-01-09T00:59:12;7.00;;;6.30;;
14584;SDS011;7379;51.506;11.876;2023-01-09T01:01:39;6.53;;;5.93;;
14584;SDS011;7379;51.506;11.876;2023-01-09T01:04:06;6.80;;;6.10;;
14584;SDS011;7379;51.506;11.876;2023-01-09T01:06:47;7.77;;;7.03;;
14584;SDS011;7379;51.506;11.876;2023-01-09T01:09:31;7.27;;;6.57;;
14584;SDS011;7379;51.506;11.876;2023-01-09T01:11:57;7.33;;;6.63;;
14584;SDS011;7379;51.506;11.876;2023-01-09T01:14:27;7.57;;;6.83;;
14584;SDS011;7379;51.506;11.876;2023-01-09T01:16:53;7.77;;;6.97;;
14584;SDS011;7379;51.506;11.876;2023-01-09T01:19:20;7.93;;;7.03;;
14584;SDS011;7379;51.506;11.876;2023-01-09T01:21:47;7.73;;;6.93;;
14584;SDS011;7379;51.506;11.876;2023-01-09T01:24:13;7.73;;;7.03;;
14584;SDS011;7379;51.506;11.876;2023-01-09T01:26:43;8.23;;;7.37;;
14584;SDS011;7379;51.506;11.876;2023-01-09T01:29:10;7.83;;;7.07;;
14584;SDS011;7379;51.506;11.876;2023-01-09T01:31:38;7.90;;;7.10;;
14584;SDS011;7379;51.506;11.876;2023-01-09T01:34:05;8.50;;;7.70;;
14584;SDS011;7379;51.506;11.876;2023-01-09T01:36:32;8.00;;;7.20;;
14584;SDS011;7379;51.506;11.876;2023-01-09T01:38:59;8.17;;;7.00;;
14584;SDS011;7379;51.506;11.876;2023-01-09T01:41:26;7.87;;;7.00;;
14584;SDS011;7379;51.506;11.876;2023-01-09T01:43:55;8.07;;;7.27;;
14584;SDS011;7379;51.506;11.876;2023-01-09T01:46:23;7.93;;;7.13;;
14584;SDS011;7379;51.506;11.876;2023-01-09T01:48:53;7.60;;;6.90;;
14584;SDS011;7379;51.506;11.876;2023-01-09T01:51:28;7.90;;;7.10;;
14584;SDS011;7379;51.506;11.876;2023-01-09T01:53:57;8.60;;;7.70;;
14584;SDS011;7379;51.506;11.876;2023-01-09T01:56:29;7.80;;;7.10;;
14584;SDS011;7379;51.506;11.876;2023-01-09T01:59:02;8.10;;;7.30;;
14584;SDS011;7379;51.506;11.876;2023-01-09T02:01:36;7.77;;;6.97;;
14584;SDS011;7379;51.506;11.876;2023-01-09T02:04:07;7.90;;;7.10;;
14584;SDS011;7379;51.506;11.876;2023-01-09T02:06:34;8.43;;;7.20;;
14584;SDS011;7379;51.506;11.876;2023-01-09T02:09:03;7.73;;;6.93;;
14584;SDS011;7379;51.506;11.876;2023-01-09T02:11:31;8.00;;;7.20;;
14584;SDS011;7379;51.506;11.876;2023-01-09T02:13:58;7.90;;;7.10;;
14584;SDS011;7379;51.506;11.876;2023-01-09T02:16:29;8.53;;;7.63;;
14584;SDS011;7379;51.506;11.876;2023-01-09T02:19:10;7.60;;;6.80;;
14584;SDS011;7379;51.506;11.876;2023-01-09T02:21:57;8.10;;;7.23;;
14584;SDS011;7379;51.506;11.876;2023-01-09T02:24:38;7.60;;;6.90;;
14584;SDS011;7379;51.506;11.876;2023-01-09T02:27:28;7.57;;;6.83;;
14584;SDS011;7379;51.506;11.876;2023-01-09T02:30:21;7.07;;;6.40;;
14584;SDS011;7379;51.506;11.876;2023-01-09T02:33:07;7.40;;;6.70;;
14584;SDS011;7379;51.506;11.876;2023-01-09T02:38:37;7.97;;;6.97;;
14584;SDS011;7379;51.506;11.876;2023-01-09T02:41:15;7.77;;;6.97;;
14584;SDS011;7379;51.506;11.876;2023-01-09T02:43:45;8.10;;;7.30;;
14584;SDS011;7379;51.506;11.876;2023-01-09T02:46:20;7.00;;;6.30;;
14584;SDS011;7379;51.506;11.876;2023-01-09T02:48:48;7.40;;;6.60;;
14584;SDS011;7379;51.506;11.876;2023-01-09T02:51:20;7.50;;;6.80;;
14584;SDS011;7379;51.506;11.876;2023-01-09T02:54:03;7.10;;;6.40;;
14584;SDS011;7379;51.506;11.876;2023-01-09T02:59:31;7.20;;;6.27;;
14584;SDS011;7379;51.506;11.876;2023-01-09T03:02:08;7.80;;;7.00;;
14584;SDS011;7379;51.506;11.876;2023-01-09T03:04:45;7.03;;;6.33;;
14584;SDS011;7379;51.506;11.876;2023-01-09T03:07:22;7.40;;;6.63;;
14584;SDS011;7379;51.506;11.876;2023-01-09T03:09:59;7.50;;;6.70;;
14584;SDS011;7379;51.506;11.876;2023-01-09T03:12:31;7.93;;;7.10;;
14584;SDS011;7379;51.506;11.876;2023-01-09T03:14:59;7.70;;;7.00;;
14584;SDS011;7379;51.506;11.876;2023-01-09T03:17:31;7.30;;;6.60;;
14584;SDS011;7379;51.506;11.876;2023-01-09T03:20:02;7.53;;;6.53;;
14584;SDS011;7379;51.506;11.876;2023-01-09T03:22:31;8.77;;;7.07;;
14584;SDS011;7379;51.506;11.876;2023-01-09T03:24:58;7.33;;;6.63;;
14584;SDS011;7379;51.506;11.876;2023-01-09T03:27:25;6.97;;;6.27;;
14584;SDS011;7379;51.506;11.876;2023-01-09T03:29:52;8.57;;;6.90;;
14584;SDS011;7379;51.506;11.876;2023-01-09T03:32:20;8.10;;;6.30;;
14584;SDS011;7379;51.506;11.876;2023-01-09T03:34:48;6.80;;;6.10;;
14584;SDS011;7379;51.506;11.876;2023-01-09T03:37:15;6.93;;;5.97;;
14584;SDS011;7379;51.506;11.876;2023-01-09T03:39:42;7.00;;;6.20;;
14584;SDS011;7379;51.506;11.876;2023-01-09T03:42:09;6.77;;;6.07;;
14584;SDS011;7379;51.506;11.876;2023-01-09T03:44:35;6.73;;;6.03;;
14584;SDS011;7379;51.506;11.876;2023-01-09T03:47:02;7.33;;;6.63;;
14584;SDS011;7379;51.506;11.876;2023-01-09T03:49:29;7.00;;;6.30;;
14584;SDS011;7379;51.506;11.876;2023-01-09T03:51:57;6.53;;;5.63;;
14584;SDS011;7379;51.506;11.876;2023-01-09T03:54:24;6.93;;;5.90;;
14584;SDS011;7379;51.506;11.876;2023-01-09T03:56:51;7.13;;;5.90;;
14584;SDS011;7379;51.506;11.876;2023-01-09T03:59:17;6.33;;;5.63;;
14584;SDS011;7379;51.506;11.876;2023-01-09T04:01:44;6.33;;;5.67;;
14584;SDS011;7379;51.506;11.876;2023-01-09T04:04:11;8.00;;;5.70;;
14584;SDS011;7379;51.506;11.876;2023-01-09T04:06:38;5.93;;;5.33;;
14584;SDS011;7379;51.506;11.876;2023-01-09T04:09:06;6.80;;;5.50;;
14584;SDS011;7379;51.506;11.876;2023-01-09T04:11:33;6.53;;;5.93;;
14584;SDS011;7379;51.506;11.876;2023-01-09T04:13:59;6.40;;;5.50;;
14584;SDS011;7379;51.506;11.876;2023-01-09T04:16:26;7.23;;;5.60;;
14584;SDS011;7379;51.506;11.876;2023-01-09T04:18:53;7.07;;;6.00;;
14584;SDS011;7379;51.506;11.876;2023-01-09T04:21:19;6.20;;;5.57;;
14584;SDS011;7379;51.506;11.876;2023-01-09T04:23:46;6.27;;;5.67;;
14584;SDS011;7379;51.506;11.876;2023-01-09T04:26:14;6.87;;;5.60;;
14584;SDS011;7379;51.506;11.876;2023-01-09T04:28:41;6.97;;;5.90;;
14584;SDS011;7379;51.506;11.876;2023-01-09T04:31:08;6.03;;;5.23;;
14584;SDS011;7379;51.506;11.876;2023-01-09T04:33:35;6.13;;;5.53;;
14584;SDS011;7379;51.506;11.876;2023-01-09T04:36:02;7.43;;;5.70;;
14584;SDS011;7379;51.506;11.876;2023-01-09T04:38:29;7.47;;;5.97;;
14584;SDS011;7379;51.506;11.876;2023-01-09T04:40:56;5.93;;;5.17;;
14584;SDS011;7379;51.506;11.876;2023-01-09T04:43:24;7.43;;;5.70;;
14584;SDS011;7379;51.506;11.876;2023-01-09T04:45:51;7.47;;;6.37;;
14584;SDS011;7379;51.506;11.876;2023-01-09T04:48:17;6.47;;;5.77;;
14584;SDS011;7379;51.506;11.876;2023-01-09T04:50:44;6.37;;;5.37;;
14584;SDS011;7379;51.506;11.876;2023-01-09T04:53:11;7.87;;;5.90;;
14584;SDS011;7379;51.506;11.876;2023-01-09T04:55:37;6.00;;;5.43;;
14584;SDS011;7379;51.506;11.876;2023-01-09T04:58:05;6.10;;;5.50;;
14584;SDS011;7379;51.506;11.876;2023-01-09T05:00:33;6.37;;;5.23;;
14584;SDS011;7379;51.506;11.876;2023-01-09T05:03:00;6.40;;;5.70;;
14584;SDS011;7379;51.506;11.876;2023-01-09T05:05:27;7.40;;;5.90;;
14584;SDS011;7379;51.506;11.876;2023-01-09T05:07:54;7.53;;;6.10;;
14584;SDS011;7379;51.506;11.876;2023-01-09T05:10:21;6.47;;;5.63;;
14584;SDS011;7379;51.506;11.876;2023-01-09T05:12:48;8.43;;;5.73;;
14584;SDS011;7379;51.506;11.876;2023-01-09T05:15:16;6.63;;;5.90;;
14584;SDS011;7379;51.506;11.876;2023-01-09T05:17:44;6.47;;;5.43;;
14584;SDS011;7379;51.506;11.876;2023-01-09T05:20:11;7.13;;;5.50;;
14584;SDS011;7379;51.506;11.876;2023-01-09T05:22:38;6.70;;;6.00;;
14584;SDS011;7379;51.506;11.876;2023-01-09T05:25:05;6.67;;;5.57;;
14584;SDS011;7379;51.506;11.876;2023-01-09T05:27:32;6.70;;;6.00;;
14584;SDS011;7379;51.506;11.876;2023-01-09T05:29:59;7.00;;;6.30;;
14584;SDS011;7379;51.506;11.876;2023-01-09T05:32:26;8.70;;;6.07;;
14584;SDS011;7379;51.506;11.876;2023-01-09T05:34:54;7.10;;;5.53;;
14584;SDS011;7379;51.506;11.876;2023-01-09T05:37:20;7.33;;;6.17;;
14584;SDS011;7379;51.506;11.876;2023-01-09T05:39:47;6.17;;;5.57;;
14584;SDS011;7379;51.506;11.876;2023-01-09T05:42:14;6.20;;;5.60;;
14584;SDS011;7379;51.506;11.876;2023-01-09T05:44:41;7.47;;;5.80;;
14584;SDS011;7379;51.506;11.876;2023-01-09T05:47:07;8.53;;;6.07;;
14584;SDS011;7379;51.506;11.876;2023-01-09T05:49:34;6.50;;;5.80;;
14584;SDS011;7379;51.506;11.876;2023-01-09T05:52:02;6.33;;;5.70;;
14584;SDS011;7379;51.506;11.876;2023-01-09T05:54:30;6.67;;;5.90;;
14584;SDS011;7379;51.506;11.876;2023-01-09T05:56:56;8.10;;;5.80;;
14584;SDS011;7379;51.506;11.876;2023-01-09T05:59:23;6.47;;;5.77;;
14584;SDS011;7379;51.506;11.876;2023-01-09T06:01:50;7.70;;;6.47;;
14584;SDS011;7379;51.506;11.876;2023-01-09T06:04:18;8.77;;;5.93;;
14584;SDS011;7379;51.506;11.876;2023-01-09T06:06:45;7.30;;;6.07;;
14584;SDS011;7379;51.506;11.876;2023-01-09T06:09:13;7.63;;;6.10;;
14584;SDS011;7379;51.506;11.876;2023-01-09T06:11:40;6.80;;;6.00;;
14584;SDS011;7379;51.506;11.876;2023-01-09T06:14:06;6.93;;;5.77;;
14584;SDS011;7379;51.506;11.876;2023-01-09T06:16:33;8.10;;;6.40;;
14584;SDS011;7379;51.506;11.876;2023-01-09T06:19:00;7.70;;;6.63;;
14584;SDS011;7379;51.506;11.876;2023-01-09T06:21:26;8.63;;;6.53;;
14584;SDS011;7379;51.506;11.876;2023-01-09T06:23:54;7.23;;;5.73;;
14584;SDS011;7379;51.506;11.876;2023-01-09T06:26:22;7.33;;;6.23;;
14584;SDS011;7379;51.506;11.876;2023-01-09T06:28:48;7.10;;;6.00;;
14584;SDS011;7379;51.506;11.876;2023-01-09T06:31:15;7.23;;;6.37;;
14584;SDS011;7379;51.506;11.876;2023-01-09T06:33:42;7.80;;;6.10;;
14584;SDS011;7379;51.506;11.876;2023-01-09T06:36:09;7.63;;;6.47;;
14584;SDS011;7379;51.506;11.876;2023-01-09T06:38:36;7.17;;;6.07;;
14584;SDS011;7379;51.506;11.876;2023-01-09T06:41:03;7.57;;;6.00;;
14584;SDS011;7379;51.506;11.876;2023-01-09T06:43:31;7.73;;;6.13;;
14584;SDS011;7379;51.506;11.876;2023-01-09T06:45:58;6.93;;;6.07;;
14584;SDS011;7379;51.506;11.876;2023-01-09T06:48:24;7.33;;;5.67;;
14584;SDS011;7379;51.506;11.876;2023-01-09T06:50:51;6.73;;;5.93;;
14584;SDS011;7379;51.506;11.876;2023-01-09T06:53:19;7.87;;;5.93;;
14584;SDS011;7379;51.506;11.876;2023-01-09T06:55:46;7.67;;;5.80;;
14584;SDS011;7379;51.506;11.876;2023-01-09T06:58:12;6.70;;;5.57;;
14584;SDS011;7379;51.506;11.876;2023-01-09T07:00:41;6.50;;;5.37;;
14584;SDS011;7379;51.506;11.876;2023-01-09T07:03:07;6.43;;;5.57;;
14584;SDS011;7379;51.506;11.876;2023-01-09T07:05:36;5.57;;;4.77;;
14584;SDS011;7379;51.506;11.876;2023-01-09T07:08:06;6.27;;;5.27;;
14584;SDS011;7379;51.506;11.876;2023-01-09T07:10:33;6.40;;;5.30;;
14584;SDS011;7379;51.506;11.876;2023-01-09T07:12:59;5.37;;;4.80;;
14584;SDS011;7379;51.506;11.876;2023-01-09T07:15:26;5.57;;;4.80;;
14584;SDS011;7379;51.506;11.876;2023-01-09T07:17:54;5.97;;;4.77;;
14584;SDS011;7379;51.506;11.876;2023-01-09T07:20:21;5.17;;;4.60;;
14584;SDS011;7379;51.506;11.876;2023-01-09T07:22:48;6.03;;;4.80;;
14584;SDS011;7379;51.506;11.876;2023-01-09T07:25:15;6.37;;;4.50;;
14584;SDS011;7379;51.506;11.876;2023-01-09T07:27:42;6.13;;;4.63;;
14584;SDS011;7379;51.506;11.876;2023-01-09T07:30:09;5.23;;;4.20;;
14584;SDS011;7379;51.506;11.876;2023-01-09T07:32:36;4.53;;;4.07;;
14584;SDS011;7379;51.506;11.876;2023-01-09T07:35:07;4.37;;;3.93;;
14584;SDS011;7379;51.506;11.876;2023-01-09T07:37:34;4.43;;;3.93;;
14584;SDS011;7379;51.506;11.876;2023-01-09T07:40:01;5.67;;;4.40;;
14584;SDS011;7379;51.506;11.876;2023-01-09T07:42:28;4.67;;;4.23;;
14584;SDS011;7379;51.506;11.876;2023-01-09T07:44:55;4.30;;;3.90;;
14584;SDS011;7379;51.506;11.876;2023-01-09T07:47:21;4.23;;;3.70;;
14584;SDS011;7379;51.506;11.876;2023-01-09T07:49:48;4.27;;;3.87;;
14584;SDS011;7379;51.506;11.876;2023-01-09T07:52:16;4.40;;;3.90;;
14584;SDS011;7379;51.506;11.876;2023-01-09T07:54:43;4.03;;;3.63;;
14584;SDS011;7379;51.506;11.876;2023-01-09T07:57:10;4.40;;;3.33;;
14584;SDS011;7379;51.506;11.876;2023-01-09T07:59:36;3.97;;;3.50;;
14584;SDS011;7379;51.506;11.876;2023-01-09T08:02:03;3.43;;;3.13;;
14584;SDS011;7379;51.506;11.876;2023-01-09T08:04:31;5.20;;;3.47;;
14584;SDS011;7379;51.506;11.876;2023-01-09T08:06:58;4.00;;;3.23;;
14584;SDS011;7379;51.506;11.876;2023-01-09T08:09:28;3.63;;;3.30;;
14584;SDS011;7379;51.506;11.876;2023-01-09T08:11:55;3.60;;;3.30;;
14584;SDS011;7379;51.506;11.876;2023-01-09T08:14:22;3.40;;;3.10;;
14584;SDS011;7379;51.506;11.876;2023-01-09T08:16:49;3.47;;;3.00;;
14584;SDS011;7379;51.506;11.876;2023-01-09T08:19:16;3.53;;;3.20;;
14584;SDS011;7379;51.506;11.876;2023-01-09T08:21:42;4.20;;;3.10;;
14584;SDS011;7379;51.506;11.876;2023-01-09T08:24:09;3.77;;;3.20;;
14584;SDS011;7379;51.506;11.876;2023-01-09T08:26:37;3.23;;;2.93;;
14584;SDS011;7379;51.506;11.876;2023-01-09T08:29:04;3.53;;;3.00;;
14584;SDS011;7379;51.506;11.876;2023-01-09T08:31:31;3.03;;;2.73;;
14584;SDS011;7379;51.506;11.876;2023-01-09T08:33:58;2.90;;;2.60;;
14584;SDS011;7379;51.506;11.876;2023-01-09T08:36:25;3.50;;;3.10;;
14584;SDS011;7379;51.506;11.876;2023-01-09T08:38:51;4.23;;;2.60;;
14584;SDS011;7379;51.506;11.876;2023-01-09T08:41:18;3.07;;;2.77;;
14584;SDS011;7379;51.506;11.876;2023-01-09T08:44:04;3.13;;;2.83;;
14584;SDS011;7379;51.506;11.876;2023-01-09T08:46:48;3.17;;;2.87;;
14584;SDS011;7379;51.506;11.876;2023-01-09T08:49:33;3.03;;;2.70;;
14584;SDS011;7379;51.506;11.876;2023-01-09T08:52:00;3.10;;;2.60;;
14584;SDS011;7379;51.506;11.876;2023-01-09T08:54:28;2.87;;;2.60;;
14584;SDS011;7379;51.506;11.876;2023-01-09T08:56:55;2.80;;;2.50;;
14584;SDS011;7379;51.506;11.876;2023-01-09T08:59:23;2.63;;;2.40;;
14584;SDS011;7379;51.506;11.876;2023-01-09T09:01:50;2.50;;;2.30;;
14584;SDS011;7379;51.506;11.876;2023-01-09T09:04:17;2.53;;;2.33;;
14584;SDS011;7379;51.506;11.876;2023-01-09T09:06:44;2.60;;;2.40;;
14584;SDS011;7379;51.506;11.876;2023-01-09T09:09:11;2.50;;;2.30;;
14584;SDS011;7379;51.506;11.876;2023-01-09T09:11:37;2.67;;;2.47;;
14584;SDS011;7379;51.506;11.876;2023-01-09T09:14:04;2.70;;;2.50;;
14584;SDS011;7379;51.506;11.876;2023-01-09T09:16:53;2.30;;;2.10;;
14584;SDS011;7379;51.506;11.876;2023-01-09T09:19:20;2.57;;;2.37;;
14584;SDS011;7379;51.506;11.876;2023-01-09T09:21:47;2.70;;;2.20;;
14584;SDS011;7379;51.506;11.876;2023-01-09T09:24:13;2.40;;;2.20;;
14584;SDS011;7379;51.506;11.876;2023-01-09T09:26:40;2.30;;;2.10;;
14584;SDS011;7379;51.506;11.876;2023-01-09T09:29:07;2.37;;;2.17;;
14584;SDS011;7379;51.506;11.876;2023-01-09T09:31:35;2.30;;;1.90;;
14584;SDS011;7379;51.506;11.876;2023-01-09T09:34:04;2.30;;;2.10;;
14584;SDS011;7379;51.506;11.876;2023-01-09T09:36:31;2.60;;;2.00;;
14584;SDS011;7379;51.506;11.876;2023-01-09T09:38:58;2.30;;;1.83;;
14584;SDS011;7379;51.506;11.876;2023-01-09T09:41:33;2.30;;;1.90;;
14584;SDS011;7379;51.506;11.876;2023-01-09T09:44:38;2.30;;;1.87;;
14584;SDS011;7379;51.506;11.876;2023-01-09T09:47:30;2.37;;;1.80;;
14584;SDS011;7379;51.506;11.876;2023-01-09T09:50:18;2.10;;;1.50;;
14584;SDS011;7379;51.506;11.876;2023-01-09T09:52:54;1.60;;;1.50;;
14584;SDS011;7379;51.506;11.876;2023-01-09T09:55:30;2.37;;;1.80;;
14584;SDS011;7379;51.506;11.876;2023-01-09T09:57:59;1.77;;;1.67;;
14584;SDS011;7379;51.506;11.876;2023-01-09T10:00:31;2.10;;;1.90;;
14584;SDS011;7379;51.506;11.876;2023-01-09T10:02:59;1.97;;;1.77;;
14584;SDS011;7379;51.506;11.876;2023-01-09T10:05:31;1.73;;;1.60;;
14584;SDS011;7379;51.506;11.876;2023-01-09T10:08:01;1.80;;;1.70;;
14584;SDS011;7379;51.506;11.876;2023-01-09T10:10:31;3.10;;;1.80;;
14584;SDS011;7379;51.506;11.876;2023-01-09T10:13:03;1.50;;;1.40;;
14584;SDS011;7379;51.506;11.876;2023-01-09T10:15:50;1.80;;;1.70;;
14584;SDS011;7379;51.506;11.876;2023-01-09T10:18:26;1.67;;;1.57;;
14584;SDS011;7379;51.506;11.876;2023-01-09T10:21:03;2.13;;;1.57;;
14584;SDS011;7379;51.506;11.876;2023-01-09T10:23:43;2.00;;;1.70;;
14584;SDS011;7379;51.506;11.876;2023-01-09T10:26:28;2.40;;;1.40;;
14584;SDS011;7379;51.506;11.876;2023-01-09T10:29:13;1.60;;;1.50;;
14584;SDS011;7379;51.506;11.876;2023-01-09T10:31:53;2.20;;;1.67;;
14584;SDS011;7379;51.506;11.876;2023-01-09T10:34:37;1.90;;;1.40;;
14584;SDS011;7379;51.506;11.876;2023-01-09T10:37:16;1.87;;;1.47;;
14584;SDS011;7379;51.506;11.876;2023-01-09T10:39:47;2.00;;;1.53;;
14584;SDS011;7379;51.506;11.876;2023-01-09T10:42:19;1.50;;;1.40;;
14584;SDS011;7379;51.506;11.876;2023-01-09T10:44:51;1.80;;;1.53;;
14584;SDS011;7379;51.506;11.876;2023-01-09T10:47:23;2.90;;;1.60;;
14584;SDS011;7379;51.506;11.876;2023-01-09T10:49:54;1.77;;;1.60;;
14584;SDS011;7379;51.506;11.876;2023-01-09T10:52:27;1.77;;;1.40;;
14584;SDS011;7379;51.506;11.876;2023-01-09T10:54:59;2.67;;;1.67;;
14584;SDS011;7379;51.506;11.876;2023-01-09T10:57:39;1.80;;;1.20;;
14584;SDS011;7379;51.506;11.876;2023-01-09T11:00:12;2.03;;;1.40;;
14584;SDS011;7379;51.506;11.876;2023-01-09T11:02:42;1.60;;;1.50;;
14584;SDS011;7379;51.506;11.876;2023-01-09T11:05:10;1.50;;;1.40;;
14584;SDS011;7379;51.506;11.876;2023-01-09T11:07:41;4.70;;;1.70;;
14584;SDS011;7379;51.506;11.876;2023-01-09T11:10:12;1.60;;;1.50;;
14584;SDS011;7379;51.506;11.876;2023-01-09T11:12:40;2.77;;;1.50;;
14584;SDS011;7379;51.506;11.876;2023-01-09T11:15:21;1.80;;;1.53;;
14584;SDS011;7379;51.506;11.876;2023-01-09T11:17:53;3.03;;;1.60;;
14584;SDS011;7379;51.506;11.876;2023-01-09T11:20:23;1.57;;;1.40;;
14584;SDS011;7379;51.506;11.876;2023-01-09T11:22:53;1.60;;;1.40;;
14584;SDS011;7379;51.506;11.876;2023-01-09T11:25:21;2.17;;;1.50;;
14584;SDS011;7379;51.506;11.876;2023-01-09T11:28:02;3.70;;;1.50;;
14584;SDS011;7379;51.506;11.876;2023-01-09T11:30:30;2.10;;;1.50;;
14584;SDS011;7379;51.506;11.876;2023-01-09T11:33:01;3.37;;;1.43;;
14584;SDS011;7379;51.506;11.876;2023-01-09T11:35:45;1.50;;;1.40;;
14584;SDS011;7379;51.506;11.876;2023-01-09T11:38:21;1.53;;;1.37;;
14584;SDS011;7379;51.506;11.876;2023-01-09T11:40:48;1.10;;;1.10;;
14584;SDS011;7379;51.506;11.876;2023-01-09T11:43:20;2.30;;;1.40;;
14584;SDS011;7379;51.506;11.876;2023-01-09T11:45:54;2.30;;;1.50;;
14584;SDS011;7379;51.506;11.876;2023-01-09T11:48:27;2.03;;;1.50;;
14584;SDS011;7379;51.506;11.876;2023-01-09T11:50:56;2.00;;;1.40;;
14584;SDS011;7379;51.506;11.876;2023-01-09T11:53:26;1.77;;;1.40;;
14584;SDS011;7379;51.506;11.876;2023-01-09T11:55:57;2.23;;;1.20;;
14584;SDS011;7379;51.506;11.876;2023-01-09T11:58:27;1.87;;;1.30;;
14584;SDS011;7379;51.506;11.876;2023-01-09T12:01:01;2.13;;;1.37;;
14584;SDS011;7379;51.506;11.876;2023-01-09T12:03:44;3.13;;;1.50;;
14584;SDS011;7379;51.506;11.876;2023-01-09T12:06:23;1.33;;;1.20;;
14584;SDS011;7379;51.506;11.876;2023-01-09T12:08:56;2.03;;;1.40;;
14584;SDS011;7379;51.506;11.876;2023-01-09T12:11:28;2.03;;;1.43;;
14584;SDS011;7379;51.506;11.876;2023-01-09T12:14:11;1.90;;;1.47;;
14584;SDS011;7379;51.506;11.876;2023-01-09T12:16:58;1.33;;;1.20;;
14584;SDS011;7379;51.506;11.876;2023-01-09T12:19:45;1.80;;;1.30;;
14584;SDS011;7379;51.506;11.876;2023-01-09T12:22:27;1.57;;;1.37;;
14584;SDS011;7379;51.506;11.876;2023-01-09T12:25:08;2.13;;;1.43;;
14584;SDS011;7379;51.506;11.876;2023-01-09T12:28:02;2.17;;;1.43;;
14584;SDS011;7379;51.506;11.876;2023-01-09T12:30:47;1.63;;;1.20;;
14584;SDS011;7379;51.506;11.876;2023-01-09T12:33:26;2.53;;;1.30;;
14584;SDS011;7379;51.506;11.876;2023-01-09T12:36:07;1.60;;;1.10;;
14584;SDS011;7379;51.506;11.876;2023-01-09T12:38:39;1.77;;;1.30;;
14584;SDS011;7379;51.506;11.876;2023-01-09T12:44:20;2.00;;;1.80;;
14584;SDS011;7379;51.506;11.876;2023-01-09T12:50:20;1.70;;;1.50;;
14584;SDS011;7379;51.506;11.876;2023-01-09T12:53:09;2.03;;;1.50;;
14584;SDS011;7379;51.506;11.876;2023-01-09T12:55:43;1.37;;;1.27;;
14584;SDS011;7379;51.506;11.876;2023-01-09T12:58:19;1.77;;;1.40;;
14584;SDS011;7379;51.506;11.876;2023-01-09T13:00:56;2.20;;;1.50;;
14584;SDS011;7379;51.506;11.876;2023-01-09T13:03:26;1.80;;;1.50;;
14584;SDS011;7379;51.506;11.876;2023-01-09T13:05:57;2.00;;;1.80;;
14584;SDS011;7379;51.506;11.876;2023-01-09T13:08:28;2.87;;;1.83;;
14584;SDS011;7379;51.506;11.876;2023-01-09T13:10:57;1.77;;;1.60;;
14584;SDS011;7379;51.506;11.876;2023-01-09T13:13:33;2.08;;;1.45;;
14584;SDS011;7379;51.506;11.876;2023-01-09T13:16:12;2.67;;;1.70;;
14584;SDS011;7379;51.506;11.876;2023-01-09T13:18:42;1.37;;;1.27;;
14584;SDS011;7379;51.506;11.876;2023-01-09T13:21:12;1.70;;;1.40;;
14584;SDS011;7379;51.506;11.876;2023-01-09T13:23:42;1.83;;;1.50;;
14584;SDS011;7379;51.506;11.876;2023-01-09T13:26:14;2.03;;;1.70;;
14584;SDS011;7379;51.506;11.876;2023-01-09T13:28:47;1.70;;;1.60;;
14584;SDS011;7379;51.506;11.876;2023-01-09T13:31:26;1.50;;;1.30;;
14584;SDS011;7379;51.506;11.876;2023-01-09T13:34:02;1.67;;;1.40;;
14584;SDS011;7379;51.506;11.876;2023-01-09T13:36:32;2.03;;;1.40;;
14584;SDS011;7379;51.506;11.876;2023-01-09T13:39:01;2.20;;;1.40;;
14584;SDS011;7379;51.506;11.876;2023-01-09T13:41:30;2.10;;;1.40;;
14584;SDS011;7379;51.506;11.876;2023-01-09T13:44:20;1.40;;;1.30;;
14584;SDS011;7379;51.506;11.876;2023-01-09T13:46:50;1.43;;;1.33;;
14584;SDS011;7379;51.506;11.876;2023-01-09T13:49:30;1.80;;;1.43;;
14584;SDS011;7379;51.506;11.876;2023-01-09T14:00:51;1.30;;;1.20;;
14584;SDS011;7379;51.506;11.876;2023-01-09T14:03:23;1.50;;;1.23;;
14584;SDS011;7379;51.506;11.876;2023-01-09T14:06:02;1.40;;;1.30;;
14584;SDS011;7379;51.506;11.876;2023-01-09T14:08:48;1.47;;;1.37;;
14584;SDS011;7379;51.506;11.876;2023-01-09T14:11:32;1.60;;;1.30;;
14584;SDS011;7379;51.506;11.876;2023-01-09T14:14:02;1.57;;;1.40;;
14584;SDS011;7379;51.506;11.876;2023-01-09T14:16:50;1.60;;;1.50;;
14584;SDS011;7379;51.506;11.876;2023-01-09T14:19:27;1.60;;;1.50;;
14584;SDS011;7379;51.506;11.876;2023-01-09T14:22:00;1.77;;;1.43;;
14584;SDS011;7379;51.506;11.876;2023-01-09T14:24:29;2.13;;;1.20;;
14584;SDS011;7379;51.506;11.876;2023-01-09T14:26:58;1.50;;;1.40;;
14584;SDS011;7379;51.506;11.876;2023-01-09T14:29:35;1.33;;;1.23;;
14584;SDS011;7379;51.506;11.876;2023-01-09T14:35:14;1.70;;;1.50;;
14584;SDS011;7379;51.506;11.876;2023-01-09T14:37:45;1.63;;;1.40;;
14584;SDS011;7379;51.506;11.876;2023-01-09T14:40:20;1.87;;;1.60;;
14584;SDS011;7379;51.506;11.876;2023-01-09T14:42:49;1.33;;;1.20;;
14584;SDS011;7379;51.506;11.876;2023-01-09T14:45:19;1.53;;;1.30;;
14584;SDS011;7379;51.506;11.876;2023-01-09T14:47:51;2.20;;;1.50;;
14584;SDS011;7379;51.506;11.876;2023-01-09T14:50:23;2.13;;;1.50;;
14584;SDS011;7379;51.506;11.876;2023-01-09T14:52:57;1.57;;;1.37;;
14584;SDS011;7379;51.506;11.876;2023-01-09T14:55:29;1.47;;;1.37;;
14584;SDS011;7379;51.506;11.876;2023-01-09T14:58:10;1.80;;;1.47;;
14584;SDS011;7379;51.506;11.876;2023-01-09T15:00:44;1.57;;;1.47;;
14584;SDS011;7379;51.506;11.876;2023-01-09T15:03:13;2.30;;;1.37;;
14584;SDS011;7379;51.506;11.876;2023-01-09T15:05:41;1.47;;;1.37;;
14584;SDS011;7379;51.506;11.876;2023-01-09T15:08:10;1.37;;;1.27;;
14584;SDS011;7379;51.506;11.876;2023-01-09T15:10:42;1.20;;;1.10;;
14584;SDS011;7379;51.506;11.876;2023-01-09T15:13:12;1.63;;;1.37;;
14584;SDS011;7379;51.506;11.876;2023-01-09T15:15:44;1.53;;;1.40;;
14584;SDS011;7379;51.506;11.876;2023-01-09T15:18:16;2.20;;;1.53;;
14584;SDS011;7379;51.506;11.876;2023-01-09T15:20:47;2.27;;;1.60;;
14584;SDS011;7379;51.506;11.876;2023-01-09T15:23:22;1.30;;;1.20;;
14584;SDS011;7379;51.506;11.876;2023-01-09T15:25:49;1.23;;;1.13;;
14584;SDS011;7379;51.506;11.876;2023-01-09T15:28:27;2.03;;;1.43;;
14584;SDS011;7379;51.506;11.876;2023-01-09T15:30:58;1.40;;;1.30;;
14584;SDS011;7379;51.506;11.876;2023-01-09T15:33:28;1.67;;;1.50;;